createdAt,value
2018-03-24T00:00:31.564Z,20.10
2018-03-24T00:01:03.597Z,20.10
2018-03-24T00:01:36.398Z,20.11
2018-03-24T00:02:08.448Z,20.11
2018-03-24T00:02:40.491Z,20.10
2018-03-24T00:03:13.278Z,20.11
2018-03-24T00:03:45.314Z,20.11
2018-03-24T00:04:17.342Z,20.12
2018-03-24T00:04:50.144Z,20.11
2018-03-24T00:05:22.242Z,20.10
2018-03-24T00:05:54.259Z,20.10
2018-03-24T00:06:26.303Z,20.12
2018-03-24T00:06:58.359Z,20.10
2018-03-24T00:07:30.398Z,20.10
2018-03-24T00:08:02.445Z,20.11
2018-03-24T00:08:34.466Z,20.11
2018-03-24T00:09:07.260Z,20.11
2018-03-24T00:09:39.289Z,20.12
2018-03-24T00:10:12.112Z,20.12
2018-03-24T00:10:44.131Z,20.11
2018-03-24T00:11:16.160Z,20.13
2018-03-24T00:11:48.953Z,20.11
2018-03-24T00:12:20.974Z,20.12
2018-03-24T00:12:53.892Z,20.12
2018-03-24T00:13:26.643Z,20.12
2018-03-24T00:13:58.700Z,20.12
2018-03-24T00:14:30.759Z,20.11
2018-03-24T00:15:02.799Z,20.11
2018-03-24T00:15:34.911Z,20.10
2018-03-24T00:16:06.907Z,20.10
2018-03-24T00:16:38.952Z,20.11
2018-03-24T00:17:11.002Z,20.10
2018-03-24T00:17:43.030Z,20.12
2018-03-24T00:18:15.837Z,20.11
2018-03-24T00:18:47.847Z,20.11
2018-03-24T00:19:20.667Z,20.12
2018-03-24T00:19:52.681Z,20.12
2018-03-24T00:20:24.722Z,20.12
2018-03-24T00:20:57.544Z,20.13
2018-03-24T00:21:29.628Z,20.12
2018-03-24T00:22:01.630Z,20.13
2018-03-24T00:22:33.657Z,20.12
2018-03-24T00:23:06.448Z,20.13
2018-03-24T00:23:38.477Z,20.13
2018-03-24T00:24:10.542Z,20.13
2018-03-24T00:24:42.566Z,20.13
2018-03-24T00:25:15.353Z,20.12
2018-03-24T00:25:47.399Z,20.13
2018-03-24T00:26:20.201Z,20.13
2018-03-24T00:26:52.221Z,20.13
2018-03-24T00:27:24.257Z,20.12
2018-03-24T00:27:57.055Z,20.12
2018-03-24T00:28:29.094Z,20.12
2018-03-24T00:29:01.889Z,20.12
2018-03-24T00:29:33.927Z,20.11
2018-03-24T00:30:05.950Z,20.12
2018-03-24T00:30:38.735Z,20.12
2018-03-24T00:31:10.765Z,20.11
2018-03-24T00:31:43.554Z,20.12
2018-03-24T00:32:15.613Z,20.13
2018-03-24T00:32:48.407Z,20.14
2018-03-24T00:33:20.434Z,20.13
2018-03-24T00:33:52.477Z,20.13
2018-03-24T00:34:24.505Z,20.13
2018-03-24T00:34:56.552Z,20.13
2018-03-24T00:35:28.580Z,20.14
2018-03-24T00:36:00.626Z,20.14
2018-03-24T00:36:32.637Z,20.13
2018-03-24T00:37:04.706Z,20.13
2018-03-24T00:37:36.725Z,20.13
2018-03-24T00:38:09.509Z,20.13
2018-03-24T00:38:41.572Z,20.13
2018-03-24T00:39:14.322Z,20.13
2018-03-24T00:39:46.410Z,20.13
2018-03-24T00:40:18.428Z,20.14
2018-03-24T00:40:50.473Z,20.15
2018-03-24T00:41:23.282Z,20.14
2018-03-24T00:41:55.318Z,20.14
2018-03-24T00:42:27.335Z,20.14
2018-03-24T00:43:00.132Z,20.13
2018-03-24T00:43:32.162Z,20.12
2018-03-24T00:44:04.940Z,20.13
2018-03-24T00:44:36.972Z,20.13
2018-03-24T00:45:09.774Z,20.13
2018-03-24T00:45:41.796Z,20.13
2018-03-24T00:46:14.651Z,20.13
2018-03-24T00:46:46.648Z,20.13
2018-03-24T00:47:18.688Z,20.13
2018-03-24T00:47:50.723Z,20.14
2018-03-24T00:48:23.509Z,20.14
2018-03-24T00:48:55.574Z,20.13
2018-03-24T00:49:27.576Z,20.13
2018-03-24T00:49:59.609Z,20.13
2018-03-24T00:50:31.632Z,20.13
2018-03-24T00:51:03.705Z,20.15
2018-03-24T00:51:35.729Z,20.14
2018-03-24T00:52:07.756Z,20.14
2018-03-24T00:52:39.793Z,20.13
2018-03-24T00:53:11.832Z,20.13
2018-03-24T00:53:43.847Z,20.15
2018-03-24T00:54:15.873Z,20.15
2018-03-24T00:54:47.900Z,20.15
2018-03-24T00:55:20.685Z,20.15
2018-03-24T00:55:52.764Z,20.14
2018-03-24T00:56:24.794Z,20.15
2018-03-24T00:56:57.595Z,20.14
2018-03-24T00:57:29.628Z,20.14
2018-03-24T00:58:01.641Z,20.14
2018-03-24T00:58:34.452Z,20.14
2018-03-24T00:59:06.485Z,20.14
2018-03-24T00:59:38.515Z,20.15
2018-03-24T01:00:11.296Z,20.15
2018-03-24T01:00:43.338Z,20.15
2018-03-24T01:01:15.429Z,20.15
2018-03-24T01:01:48.189Z,20.15
2018-03-24T01:02:20.222Z,20.16
2018-03-24T01:02:53.012Z,20.15
2018-03-24T01:03:25.041Z,20.15
2018-03-24T01:03:57.065Z,20.15
2018-03-24T01:04:29.103Z,20.15
2018-03-24T01:05:01.133Z,20.15
2018-03-24T01:05:33.156Z,20.15
2018-03-24T01:06:05.180Z,20.15
2018-03-24T01:06:37.956Z,20.16
2018-03-24T01:07:10.781Z,20.14
2018-03-24T01:07:42.812Z,20.16
2018-03-24T01:08:14.832Z,20.15
2018-03-24T01:08:47.637Z,20.16
2018-03-24T01:09:19.651Z,20.15
2018-03-24T01:09:51.687Z,20.14
2018-03-24T01:10:23.710Z,20.15
2018-03-24T01:10:55.741Z,20.14
2018-03-24T01:11:27.761Z,20.15
2018-03-24T01:11:59.788Z,20.15
2018-03-24T01:12:31.823Z,20.16
2018-03-24T01:13:03.853Z,20.15
2018-03-24T01:13:35.888Z,20.15
2018-03-24T01:14:07.900Z,20.15
2018-03-24T01:14:40.688Z,20.15
2018-03-24T01:15:12.733Z,20.15
2018-03-24T01:15:45.545Z,20.15
2018-03-24T01:16:17.559Z,20.14
2018-03-24T01:16:50.348Z,20.14
2018-03-24T01:17:22.375Z,20.14
2018-03-24T01:17:54.421Z,20.15
2018-03-24T01:18:27.200Z,20.15
2018-03-24T01:18:59.235Z,20.16
2018-03-24T01:19:32.022Z,20.15
2018-03-24T01:20:04.049Z,20.16
2018-03-24T01:20:36.840Z,20.16
2018-03-24T01:21:08.880Z,20.15
2018-03-24T01:21:41.667Z,20.16
2018-03-24T01:22:13.714Z,20.16
2018-03-24T01:22:45.748Z,20.15
2018-03-24T01:23:18.547Z,20.14
2018-03-24T01:23:50.578Z,20.15
2018-03-24T01:24:23.384Z,20.15
2018-03-24T01:24:55.403Z,20.15
2018-03-24T01:25:27.439Z,20.15
2018-03-24T01:26:00.229Z,20.14
2018-03-24T01:26:32.244Z,20.16
2018-03-24T01:27:04.301Z,20.15
2018-03-24T01:27:36.334Z,20.15
2018-03-24T01:28:08.364Z,20.16
2018-03-24T01:28:40.391Z,20.16
2018-03-24T01:29:12.431Z,20.16
2018-03-24T01:29:44.477Z,20.15
2018-03-24T01:30:17.259Z,20.15
2018-03-24T01:30:49.322Z,20.15
2018-03-24T01:31:21.345Z,20.15
2018-03-24T01:31:54.162Z,20.15
2018-03-24T01:32:26.183Z,20.15
2018-03-24T01:32:58.232Z,20.16
2018-03-24T01:33:30.264Z,20.16
2018-03-24T01:34:03.070Z,20.16
2018-03-24T01:34:35.083Z,20.14
2018-03-24T01:35:07.883Z,20.15
2018-03-24T01:35:39.911Z,20.16
2018-03-24T01:36:11.940Z,20.15
2018-03-24T01:36:43.973Z,20.16
2018-03-24T01:37:16.001Z,20.16
2018-03-24T01:37:48.028Z,20.16
2018-03-24T01:38:20.088Z,20.16
2018-03-24T01:38:52.110Z,20.15
2018-03-24T01:39:24.910Z,20.16
2018-03-24T01:39:56.944Z,20.15
2018-03-24T01:40:28.966Z,20.15
2018-03-24T01:41:01.008Z,20.15
2018-03-24T01:41:33.062Z,20.15
2018-03-24T01:42:05.094Z,20.15
2018-03-24T01:42:37.132Z,20.17
2018-03-24T01:43:09.171Z,20.17
2018-03-24T01:43:41.196Z,20.17
2018-03-24T01:44:13.216Z,20.17
2018-03-24T01:44:45.295Z,20.16
2018-03-24T01:45:17.306Z,20.16
2018-03-24T01:45:49.341Z,20.16
2018-03-24T01:46:21.369Z,20.16
2018-03-24T01:46:53.412Z,20.16
2018-03-24T01:47:25.527Z,20.16
2018-03-24T01:47:57.522Z,20.16
2018-03-24T01:48:29.573Z,20.16
2018-03-24T01:49:01.590Z,20.16
2018-03-24T01:49:34.385Z,20.16
2018-03-24T01:50:06.501Z,20.15
2018-03-24T01:50:38.496Z,20.15
2018-03-24T01:51:10.561Z,20.16
2018-03-24T01:51:42.604Z,20.17
2018-03-24T01:52:14.632Z,20.18
2018-03-24T01:52:47.478Z,20.16
2018-03-24T01:53:19.498Z,20.16
2018-03-24T01:53:51.540Z,20.17
2018-03-24T01:54:23.549Z,20.18
2018-03-24T01:54:56.327Z,20.18
2018-03-24T01:55:28.351Z,20.17
2018-03-24T01:56:00.396Z,20.17
2018-03-24T01:56:32.426Z,20.18
2018-03-24T01:57:04.450Z,20.17
2018-03-24T01:57:36.473Z,20.16
2018-03-24T01:58:09.267Z,20.17
2018-03-24T01:58:41.306Z,20.16
2018-03-24T01:59:14.115Z,20.17
2018-03-24T01:59:46.137Z,20.18
2018-03-24T02:00:18.244Z,20.17
2018-03-24T02:00:50.245Z,20.16
2018-03-24T02:01:22.260Z,20.17
2018-03-24T02:01:55.069Z,20.17
2018-03-24T02:02:27.114Z,20.17
2018-03-24T02:02:59.123Z,20.16
2018-03-24T02:03:31.172Z,20.17
2018-03-24T02:04:03.207Z,20.16
2018-03-24T02:04:35.243Z,20.19
2018-03-24T02:05:07.270Z,20.18
2018-03-24T02:05:39.301Z,20.19
2018-03-24T02:06:12.103Z,20.18
2018-03-24T02:06:44.120Z,20.17
2018-03-24T02:07:16.928Z,20.17
2018-03-24T02:07:48.987Z,20.18
2018-03-24T02:08:21.028Z,20.17
2018-03-24T02:08:53.052Z,20.17
2018-03-24T02:09:25.096Z,20.18
2018-03-24T02:09:57.901Z,20.18
2018-03-24T02:10:29.927Z,20.17
2018-03-24T02:11:01.965Z,20.17
2018-03-24T02:11:34.760Z,20.16
2018-03-24T02:12:06.792Z,20.17
2018-03-24T02:12:39.620Z,20.18
2018-03-24T02:13:11.630Z,20.17
2018-03-24T02:13:43.660Z,20.17
2018-03-24T02:14:16.450Z,20.17
2018-03-24T02:14:48.474Z,20.18
2018-03-24T02:15:21.277Z,20.18
2018-03-24T02:15:53.316Z,20.17
2018-03-24T02:16:25.341Z,20.18
2018-03-24T02:16:58.367Z,20.17
2018-03-24T02:17:30.422Z,20.16
2018-03-24T02:18:02.479Z,20.15
2018-03-24T02:18:34.527Z,20.16
2018-03-24T02:19:06.537Z,20.16
2018-03-24T02:19:38.570Z,20.16
2018-03-24T02:20:11.368Z,20.17
2018-03-24T02:20:43.403Z,20.17
2018-03-24T02:21:16.224Z,20.18
2018-03-24T02:21:48.239Z,20.18
2018-03-24T02:22:20.259Z,20.19
2018-03-24T02:22:53.059Z,20.19
2018-03-24T02:23:25.866Z,20.19
2018-03-24T02:23:57.890Z,20.19
2018-03-24T02:24:29.919Z,20.18
2018-03-24T02:25:02.704Z,20.18
2018-03-24T02:25:34.719Z,20.18
2018-03-24T02:26:07.526Z,20.18
2018-03-24T02:26:39.552Z,20.18
2018-03-24T02:27:12.360Z,20.19
2018-03-24T02:27:44.394Z,20.17
2018-03-24T02:28:16.431Z,20.19
2018-03-24T02:28:49.254Z,20.17
2018-03-24T02:29:21.285Z,20.19
2018-03-24T02:29:53.331Z,20.17
2018-03-24T02:30:25.357Z,20.17
2018-03-24T02:30:58.157Z,20.18
2018-03-24T02:31:30.182Z,20.19
2018-03-24T02:32:02.213Z,20.19
2018-03-24T02:32:35.006Z,20.18
2018-03-24T02:33:07.048Z,20.18
2018-03-24T02:33:39.089Z,20.18
2018-03-24T02:34:11.890Z,20.19
2018-03-24T02:34:43.931Z,20.19
2018-03-24T02:35:15.969Z,20.19
2018-03-24T02:35:48.010Z,20.19
2018-03-24T02:36:20.820Z,20.19
2018-03-24T02:36:52.936Z,20.19
2018-03-24T02:37:25.772Z,20.19
2018-03-24T02:37:57.792Z,20.19
2018-03-24T02:38:29.816Z,20.18
2018-03-24T02:39:02.626Z,20.18
2018-03-24T02:39:34.669Z,20.19
2018-03-24T02:40:06.754Z,20.19
2018-03-24T02:40:38.816Z,20.18
2018-03-24T02:41:10.810Z,20.18
2018-03-24T02:41:42.839Z,20.18
2018-03-24T02:42:15.624Z,20.18
2018-03-24T02:42:47.645Z,20.18
2018-03-24T02:43:20.460Z,20.18
2018-03-24T02:43:52.494Z,20.18
2018-03-24T02:44:24.527Z,20.18
2018-03-24T02:44:56.570Z,20.17
2018-03-24T02:45:29.370Z,20.19
2018-03-24T02:46:01.430Z,20.18
2018-03-24T02:46:33.445Z,20.17
2018-03-24T02:47:06.236Z,20.17
2018-03-24T02:47:38.309Z,20.17
2018-03-24T02:48:10.322Z,20.18
2018-03-24T02:48:43.122Z,20.18
2018-03-24T02:49:15.146Z,20.18
2018-03-24T02:49:47.939Z,20.18
2018-03-24T02:50:19.988Z,20.17
2018-03-24T02:50:52.032Z,20.18
2018-03-24T02:51:24.074Z,20.17
2018-03-24T02:51:56.113Z,20.19
2018-03-24T02:52:28.908Z,20.18
2018-03-24T02:53:00.943Z,20.18
2018-03-24T02:53:33.723Z,20.18
2018-03-24T02:54:05.779Z,20.18
2018-03-24T02:54:37.806Z,20.16
2018-03-24T02:55:10.604Z,20.18
2018-03-24T02:55:42.706Z,20.18
2018-03-24T02:56:14.707Z,20.17
2018-03-24T02:56:46.727Z,20.17
2018-03-24T02:57:19.564Z,20.19
2018-03-24T02:57:51.589Z,20.18
2018-03-24T02:58:23.648Z,20.17
2018-03-24T02:58:55.699Z,20.17
2018-03-24T02:59:27.723Z,20.16
2018-03-24T02:59:59.792Z,20.17
2018-03-24T03:00:31.858Z,20.17
2018-03-24T03:01:03.902Z,20.18
2018-03-24T03:01:35.936Z,20.17
2018-03-24T03:02:08.193Z,20.17
2018-03-24T03:02:40.247Z,20.17
2018-03-24T03:03:12.505Z,20.17
2018-03-24T03:03:44.516Z,20.19
2018-03-24T03:04:17.333Z,20.18
2018-03-24T03:04:49.380Z,20.18
2018-03-24T03:05:21.432Z,20.17
2018-03-24T03:05:53.504Z,20.17
2018-03-24T03:06:25.541Z,20.17
2018-03-24T03:06:57.574Z,20.17
2018-03-24T03:07:29.688Z,20.19
2018-03-24T03:08:01.706Z,20.18
2018-03-24T03:08:33.730Z,20.18
2018-03-24T03:09:05.774Z,20.18
2018-03-24T03:09:37.835Z,20.17
2018-03-24T03:10:09.864Z,20.18
2018-03-24T03:10:42.664Z,20.18
2018-03-24T03:11:14.701Z,20.18
2018-03-24T03:11:46.716Z,20.18
2018-03-24T03:12:19.517Z,20.17
2018-03-24T03:12:51.564Z,20.17
2018-03-24T03:13:24.358Z,20.17
2018-03-24T03:13:56.373Z,20.17
2018-03-24T03:14:29.181Z,20.18
2018-03-24T03:15:01.238Z,20.18
2018-03-24T03:15:33.276Z,20.18
2018-03-24T03:16:05.321Z,20.18
2018-03-24T03:16:38.105Z,20.17
2018-03-24T03:17:10.127Z,20.17
2018-03-24T03:17:42.169Z,20.17
2018-03-24T03:18:15.033Z,20.16
2018-03-24T03:18:47.840Z,20.17
2018-03-24T03:19:19.868Z,20.17
2018-03-24T03:19:51.911Z,20.18
2018-03-24T03:20:24.724Z,20.19
2018-03-24T03:20:56.737Z,20.17
2018-03-24T03:21:28.792Z,20.16
2018-03-24T03:22:01.579Z,20.16
2018-03-24T03:22:33.598Z,20.17
2018-03-24T03:23:06.426Z,20.17
2018-03-24T03:23:38.441Z,20.18
2018-03-24T03:24:10.488Z,20.19
2018-03-24T03:24:42.517Z,20.19
2018-03-24T03:25:15.308Z,20.18
2018-03-24T03:25:47.332Z,20.18
2018-03-24T03:26:20.126Z,20.19
2018-03-24T03:26:52.186Z,20.18
2018-03-24T03:27:24.214Z,20.18
2018-03-24T03:27:57.049Z,20.17
2018-03-24T03:28:29.024Z,20.16
2018-03-24T03:29:01.828Z,20.17
2018-03-24T03:29:33.875Z,20.18
2018-03-24T03:30:05.910Z,20.17
2018-03-24T03:30:37.940Z,20.17
2018-03-24T03:31:09.964Z,20.18
2018-03-24T03:31:42.002Z,20.17
2018-03-24T03:32:14.030Z,20.18
2018-03-24T03:32:46.059Z,20.17
2018-03-24T03:33:18.872Z,20.18
2018-03-24T03:33:50.884Z,20.19
2018-03-24T03:34:22.972Z,20.18
2018-03-24T03:34:54.999Z,20.20
2018-03-24T03:35:27.046Z,20.18
2018-03-24T03:35:59.062Z,20.19
2018-03-24T03:36:31.114Z,20.19
2018-03-24T03:37:03.156Z,20.19
2018-03-24T03:37:35.182Z,20.20
2018-03-24T03:38:07.247Z,20.19
2018-03-24T03:38:39.281Z,20.19
2018-03-24T03:39:11.304Z,20.19
2018-03-24T03:39:43.368Z,20.18
2018-03-24T03:40:16.136Z,20.17
2018-03-24T03:40:48.169Z,20.16
2018-03-24T03:41:20.964Z,20.18
2018-03-24T03:41:52.982Z,20.15
2018-03-24T03:42:25.771Z,20.16
2018-03-24T03:42:57.820Z,20.18
2018-03-24T03:43:29.857Z,20.18
2018-03-24T03:44:02.634Z,20.17
2018-03-24T03:44:34.664Z,20.17
2018-03-24T03:45:07.459Z,20.18
2018-03-24T03:45:39.494Z,20.19
2018-03-24T03:46:12.279Z,20.19
2018-03-24T03:46:44.324Z,20.19
2018-03-24T03:47:16.357Z,20.19
2018-03-24T03:47:49.156Z,20.20
2018-03-24T03:48:21.214Z,20.18
2018-03-24T03:48:53.274Z,20.19
2018-03-24T03:49:25.329Z,20.19
2018-03-24T03:49:57.350Z,20.19
2018-03-24T03:50:29.389Z,20.18
2018-03-24T03:51:02.178Z,20.20
2018-03-24T03:51:34.209Z,20.19
2018-03-24T03:52:07.003Z,20.19
2018-03-24T03:52:39.111Z,20.20
2018-03-24T03:53:11.120Z,20.21
2018-03-24T03:53:43.179Z,20.20
2018-03-24T03:54:15.183Z,20.20
2018-03-24T03:54:47.964Z,20.21
2018-03-24T03:55:20.032Z,20.21
2018-03-24T03:55:52.091Z,20.18
2018-03-24T03:56:24.122Z,20.19
2018-03-24T03:56:56.922Z,20.18
2018-03-24T03:57:28.943Z,20.19
2018-03-24T03:58:00.976Z,20.19
2018-03-24T03:58:33.763Z,20.18
2018-03-24T03:59:05.801Z,20.18
2018-03-24T03:59:38.579Z,20.18
2018-03-24T04:00:11.376Z,20.18
2018-03-24T04:00:43.397Z,20.18
2018-03-24T04:01:15.474Z,20.18
2018-03-24T04:01:47.542Z,20.19
2018-03-24T04:02:19.572Z,20.18
2018-03-24T04:02:51.643Z,20.18
2018-03-24T04:03:23.641Z,20.19
2018-03-24T04:03:56.451Z,20.19
2018-03-24T04:04:28.480Z,20.18
2018-03-24T04:05:00.530Z,20.19
2018-03-24T04:05:32.536Z,20.19
2018-03-24T04:06:04.561Z,20.20
2018-03-24T04:06:36.598Z,20.19
2018-03-24T04:07:08.656Z,20.18
2018-03-24T04:07:40.681Z,20.19
2018-03-24T04:08:13.462Z,20.20
2018-03-24T04:08:45.509Z,20.21
2018-03-24T04:09:18.281Z,20.19
2018-03-24T04:09:50.306Z,20.21
2018-03-24T04:10:23.107Z,20.21
2018-03-24T04:10:55.148Z,20.21
2018-03-24T04:11:27.181Z,20.20
2018-03-24T04:11:59.960Z,20.20
2018-03-24T04:12:32.055Z,20.21
2018-03-24T04:13:04.089Z,20.19
2018-03-24T04:13:36.105Z,20.20
2018-03-24T04:14:08.891Z,20.20
2018-03-24T04:14:40.952Z,20.19
2018-03-24T04:15:12.979Z,20.19
2018-03-24T04:15:45.772Z,20.18
2018-03-24T04:16:17.806Z,20.19
2018-03-24T04:16:49.837Z,20.19
2018-03-24T04:17:22.656Z,20.21
2018-03-24T04:17:54.700Z,20.19
2018-03-24T04:18:26.725Z,20.18
2018-03-24T04:18:59.532Z,20.19
2018-03-24T04:19:31.590Z,20.19
2018-03-24T04:20:03.628Z,20.21
2018-03-24T04:20:35.645Z,20.21
2018-03-24T04:21:08.430Z,20.20
2018-03-24T04:21:40.498Z,20.20
2018-03-24T04:22:12.521Z,20.20
2018-03-24T04:22:45.373Z,20.21
2018-03-24T04:23:17.360Z,20.20
2018-03-24T04:23:49.395Z,20.20
2018-03-24T04:24:21.520Z,20.21
2018-03-24T04:24:53.515Z,20.20
2018-03-24T04:25:25.542Z,20.20
2018-03-24T04:25:58.393Z,20.20
2018-03-24T04:26:30.438Z,20.21
2018-03-24T04:27:02.429Z,20.20
2018-03-24T04:27:34.449Z,20.20
2018-03-24T04:28:06.478Z,20.20
2018-03-24T04:28:38.507Z,20.19
2018-03-24T04:29:10.598Z,20.20
2018-03-24T04:29:42.588Z,20.20
2018-03-24T04:30:14.628Z,20.21
2018-03-24T04:30:47.419Z,20.21
2018-03-24T04:31:19.453Z,20.21
2018-03-24T04:31:51.516Z,20.22
2018-03-24T04:32:23.539Z,20.22
2018-03-24T04:32:56.338Z,20.21
2018-03-24T04:33:28.372Z,20.21
2018-03-24T04:34:01.149Z,20.23
2018-03-24T04:34:33.188Z,20.22
2018-03-24T04:35:05.993Z,20.21
2018-03-24T04:35:38.038Z,20.20
2018-03-24T04:36:10.064Z,20.21
2018-03-24T04:36:42.113Z,20.22
2018-03-24T04:37:14.192Z,20.21
2018-03-24T04:37:46.963Z,20.21
2018-03-24T04:38:19.143Z,20.21
2018-03-24T04:38:51.186Z,20.21
2018-03-24T04:39:23.189Z,20.20
2018-03-24T04:39:55.984Z,20.21
2018-03-24T04:40:27.997Z,20.21
2018-03-24T04:41:00.785Z,20.20
2018-03-24T04:41:33.577Z,20.20
2018-03-24T04:42:05.591Z,20.21
2018-03-24T04:42:38.393Z,20.21
2018-03-24T04:43:10.413Z,20.22
2018-03-24T04:43:43.224Z,20.23
2018-03-24T04:44:15.245Z,20.22
2018-03-24T04:44:47.281Z,20.21
2018-03-24T04:45:20.085Z,20.21
2018-03-24T04:45:52.101Z,20.20
2018-03-24T04:46:24.916Z,20.21
2018-03-24T04:46:56.933Z,20.21
2018-03-24T04:47:28.980Z,20.21
2018-03-24T04:48:01.762Z,20.22
2018-03-24T04:48:33.791Z,20.22
2018-03-24T04:49:05.802Z,20.22
2018-03-24T04:49:37.831Z,20.23
2018-03-24T04:50:09.846Z,20.23
2018-03-24T04:50:41.903Z,20.23
2018-03-24T04:51:14.697Z,20.22
2018-03-24T04:51:46.802Z,20.22
2018-03-24T04:52:18.809Z,20.22
2018-03-24T04:52:50.846Z,20.21
2018-03-24T04:53:22.905Z,20.21
2018-03-24T04:53:54.927Z,20.22
2018-03-24T04:54:27.744Z,20.21
2018-03-24T04:54:59.779Z,20.22
2018-03-24T04:55:31.803Z,20.22
2018-03-24T04:56:04.649Z,20.22
2018-03-24T04:56:36.654Z,20.22
2018-03-24T04:57:08.667Z,20.21
2018-03-24T04:57:41.479Z,20.21
2018-03-24T04:58:13.497Z,20.21
2018-03-24T04:58:45.549Z,20.20
2018-03-24T04:59:17.591Z,20.21
2018-03-24T04:59:50.390Z,20.20
2018-03-24T05:00:22.420Z,20.20
2018-03-24T05:00:55.190Z,20.21
2018-03-24T05:01:27.255Z,20.22
2018-03-24T05:01:59.276Z,20.22
2018-03-24T05:02:32.069Z,20.22
2018-03-24T05:03:04.121Z,20.23
2018-03-24T05:03:36.888Z,20.23
2018-03-24T05:04:08.913Z,20.23
2018-03-24T05:04:41.708Z,20.22
2018-03-24T05:05:13.745Z,20.22
2018-03-24T05:05:46.543Z,20.22
2018-03-24T05:06:18.580Z,20.23
2018-03-24T05:06:50.612Z,20.23
2018-03-24T05:07:22.638Z,20.24
2018-03-24T05:07:54.661Z,20.23
2018-03-24T05:08:26.679Z,20.23
2018-03-24T05:08:58.752Z,20.25
2018-03-24T05:09:30.741Z,20.23
2018-03-24T05:10:02.788Z,20.23
2018-03-24T05:10:34.849Z,20.22
2018-03-24T05:11:06.901Z,20.22
2018-03-24T05:11:39.068Z,20.22
2018-03-24T05:12:11.049Z,20.23
2018-03-24T05:12:43.097Z,20.23
2018-03-24T05:13:15.876Z,20.22
2018-03-24T05:13:47.934Z,20.22
2018-03-24T05:14:19.956Z,20.23
2018-03-24T05:14:52.754Z,20.23
2018-03-24T05:15:24.826Z,20.23
2018-03-24T05:15:56.841Z,20.22
2018-03-24T05:16:28.877Z,20.22
2018-03-24T05:17:01.703Z,20.22
2018-03-24T05:17:33.733Z,20.23
2018-03-24T05:18:05.757Z,20.24
2018-03-24T05:18:38.537Z,20.21
2018-03-24T05:19:10.581Z,20.21
2018-03-24T05:19:42.608Z,20.23
2018-03-24T05:20:15.429Z,20.22
2018-03-24T05:20:47.464Z,20.22
2018-03-24T05:21:19.476Z,20.22
2018-03-24T05:21:52.292Z,20.22
2018-03-24T05:22:24.323Z,20.24
2018-03-24T05:22:56.417Z,20.23
2018-03-24T05:23:28.480Z,20.24
2018-03-24T05:24:00.511Z,20.23
2018-03-24T05:24:32.532Z,20.23
2018-03-24T05:25:04.561Z,20.24
2018-03-24T05:25:37.347Z,20.24
2018-03-24T05:26:09.388Z,20.24
2018-03-24T05:26:42.169Z,20.23
2018-03-24T05:27:14.196Z,20.23
2018-03-24T05:27:46.316Z,20.23
2018-03-24T05:28:18.356Z,20.24
2018-03-24T05:28:50.380Z,20.24
2018-03-24T05:29:22.446Z,20.24
2018-03-24T05:29:54.470Z,20.24
2018-03-24T05:30:27.302Z,20.25
2018-03-24T05:30:59.351Z,20.23
2018-03-24T05:31:31.404Z,20.24
2018-03-24T05:32:03.441Z,20.25
2018-03-24T05:32:35.456Z,20.24
2018-03-24T05:33:07.488Z,20.25
2018-03-24T05:33:40.325Z,20.24
2018-03-24T05:34:12.378Z,20.25
2018-03-24T05:34:44.461Z,20.24
2018-03-24T05:35:16.563Z,20.24
2018-03-24T05:35:48.596Z,20.24
2018-03-24T05:36:20.697Z,20.24
2018-03-24T05:36:52.690Z,20.23
2018-03-24T05:37:24.777Z,20.25
2018-03-24T05:37:56.871Z,20.25
2018-03-24T05:38:28.882Z,20.25
2018-03-24T05:39:00.931Z,20.25
2018-03-24T05:39:32.992Z,20.24
2018-03-24T05:40:05.037Z,20.24
2018-03-24T05:40:37.075Z,20.26
2018-03-24T05:41:09.111Z,20.24
2018-03-24T05:41:41.135Z,20.24
2018-03-24T05:42:13.936Z,20.25
2018-03-24T05:42:45.967Z,20.26
2018-03-24T05:43:17.998Z,20.25
2018-03-24T05:43:50.062Z,20.24
2018-03-24T05:44:22.077Z,20.24
2018-03-24T05:44:54.109Z,20.25
2018-03-24T05:45:26.127Z,20.24
2018-03-24T05:45:58.170Z,20.24
2018-03-24T05:46:31.020Z,20.24
2018-03-24T05:47:03.021Z,20.24
2018-03-24T05:47:35.050Z,20.23
2018-03-24T05:48:07.081Z,20.23
2018-03-24T05:48:39.950Z,20.23
2018-03-24T05:49:11.920Z,20.24
2018-03-24T05:49:43.979Z,20.24
2018-03-24T05:50:16.022Z,20.25
2018-03-24T05:50:48.805Z,20.24
2018-03-24T05:51:20.828Z,20.23
2018-03-24T05:51:53.628Z,20.23
2018-03-24T05:52:25.662Z,20.23
2018-03-24T05:52:57.716Z,20.24
2018-03-24T05:53:30.499Z,20.24
2018-03-24T05:54:02.556Z,20.24
2018-03-24T05:54:35.317Z,20.24
2018-03-24T05:55:07.366Z,20.25
2018-03-24T05:55:39.384Z,20.26
2018-03-24T05:56:12.190Z,20.25
2018-03-24T05:56:44.212Z,20.27
2018-03-24T05:57:17.009Z,20.27
2018-03-24T05:57:49.028Z,20.25
2018-03-24T05:58:21.837Z,20.27
2018-03-24T05:58:53.887Z,20.27
2018-03-24T05:59:25.892Z,20.26
2018-03-24T05:59:58.700Z,20.26
2018-03-24T06:00:30.730Z,20.27
2018-03-24T06:01:03.519Z,20.27
2018-03-24T06:01:35.549Z,20.27
2018-03-24T06:02:08.350Z,20.27
2018-03-24T06:02:40.393Z,20.26
2018-03-24T06:03:12.431Z,20.26
2018-03-24T06:03:44.570Z,20.26
2018-03-24T06:04:17.357Z,20.26
2018-03-24T06:04:49.412Z,20.26
2018-03-24T06:05:22.187Z,20.25
2018-03-24T06:05:54.232Z,20.26
2018-03-24T06:06:26.257Z,20.27
2018-03-24T06:06:59.059Z,20.27
2018-03-24T06:07:31.115Z,20.26
2018-03-24T06:08:03.131Z,20.26
2018-03-24T06:08:35.936Z,20.26
2018-03-24T06:09:07.985Z,20.26
2018-03-24T06:09:40.004Z,20.25
2018-03-24T06:10:12.828Z,20.26
2018-03-24T06:10:44.845Z,20.26
2018-03-24T06:11:16.876Z,20.28
2018-03-24T06:11:49.671Z,20.27
2018-03-24T06:12:21.701Z,20.27
2018-03-24T06:12:54.522Z,20.28
2018-03-24T06:13:26.576Z,20.26
2018-03-24T06:13:58.629Z,20.28
2018-03-24T06:14:30.663Z,20.28
2018-03-24T06:15:02.684Z,20.27
2018-03-24T06:15:34.721Z,20.26
2018-03-24T06:16:07.544Z,20.28
2018-03-24T06:16:39.564Z,20.27
2018-03-24T06:17:11.593Z,20.26
2018-03-24T06:17:44.384Z,20.27
2018-03-24T06:18:16.457Z,20.27
2018-03-24T06:18:48.493Z,20.27
2018-03-24T06:19:20.533Z,20.27
2018-03-24T06:19:52.567Z,20.27
2018-03-24T06:20:25.377Z,20.28
2018-03-24T06:20:57.405Z,20.28
2018-03-24T06:21:29.486Z,20.28
2018-03-24T06:22:01.509Z,20.27
2018-03-24T06:22:33.587Z,20.28
2018-03-24T06:23:05.656Z,20.27
2018-03-24T06:23:37.673Z,20.27
2018-03-24T06:24:09.719Z,20.27
2018-03-24T06:24:41.748Z,20.28
2018-03-24T06:25:14.537Z,20.27
2018-03-24T06:25:46.559Z,20.27
2018-03-24T06:26:19.353Z,20.28
2018-03-24T06:26:51.389Z,20.28
2018-03-24T06:27:24.178Z,20.27
2018-03-24T06:27:56.210Z,20.27
2018-03-24T06:28:29.008Z,20.28
2018-03-24T06:29:01.009Z,20.28
2018-03-24T06:29:33.033Z,20.28
2018-03-24T06:30:05.060Z,20.28
2018-03-24T06:30:37.109Z,20.28
2018-03-24T06:31:09.136Z,20.27
2018-03-24T06:31:41.941Z,20.27
2018-03-24T06:32:14.001Z,20.28
2018-03-24T06:32:46.021Z,20.30
2018-03-24T06:33:18.077Z,20.30
2018-03-24T06:33:50.108Z,20.28
2018-03-24T06:34:22.917Z,20.30
2018-03-24T06:34:54.924Z,20.28
2018-03-24T06:35:27.717Z,20.28
2018-03-24T06:35:59.748Z,20.30
2018-03-24T06:36:32.536Z,20.28
2018-03-24T06:37:04.561Z,20.27
2018-03-24T06:37:37.358Z,20.28
2018-03-24T06:38:09.446Z,20.28
2018-03-24T06:38:41.448Z,20.30
2018-03-24T06:39:14.286Z,20.28
2018-03-24T06:39:46.287Z,20.30
2018-03-24T06:40:18.388Z,20.27
2018-03-24T06:40:50.404Z,20.28
2018-03-24T06:41:22.440Z,20.28
2018-03-24T06:41:54.516Z,20.31
2018-03-24T06:42:26.543Z,20.30
2018-03-24T06:42:58.565Z,20.31
2018-03-24T06:43:31.346Z,20.29
2018-03-24T06:44:03.388Z,20.31
2018-03-24T06:44:36.187Z,20.31
2018-03-24T06:45:08.304Z,20.28
2018-03-24T06:45:40.348Z,20.28
2018-03-24T06:46:13.183Z,20.30
2018-03-24T06:46:45.210Z,20.31
2018-03-24T06:47:17.248Z,20.30
2018-03-24T06:47:49.283Z,20.32
2018-03-24T06:48:22.082Z,20.32
2018-03-24T06:48:54.109Z,20.31
2018-03-24T06:49:26.926Z,20.32
2018-03-24T06:49:58.947Z,20.31
2018-03-24T06:50:30.973Z,20.31
2018-03-24T06:51:03.767Z,20.32
2018-03-24T06:51:35.846Z,20.32
2018-03-24T06:52:07.893Z,20.31
2018-03-24T06:52:39.943Z,20.32
2018-03-24T06:53:11.958Z,20.32
2018-03-24T06:53:43.977Z,20.30
2018-03-24T06:54:16.819Z,20.30
2018-03-24T06:54:48.838Z,20.30
2018-03-24T06:55:20.868Z,20.31